createdAt,value
2022-10-15T00:00:32.559Z,18.62
2022-10-15T00:01:34.182Z,18.61
2022-10-15T00:02:35.703Z,18.54
2022-10-15T00:03:37.791Z,18.57
2022-10-15T00:04:39.248Z,18.54
2022-10-15T00:05:40.747Z,18.56
2022-10-15T00:06:42.238Z,18.57
2022-10-15T00:07:43.911Z,18.54
2022-10-15T00:08:45.581Z,18.57
2022-10-15T00:09:47.039Z,18.57
2022-10-15T00:10:48.475Z,18.59
2022-10-15T00:11:49.960Z,18.60
2022-10-15T00:12:51.483Z,18.64
2022-10-15T00:13:53.490Z,18.63
2022-10-15T00:14:55.030Z,18.63
2022-10-15T00:15:56.861Z,18.57
2022-10-15T00:16:58.287Z,18.56
2022-10-15T00:17:59.764Z,18.49
2022-10-15T00:19:01.266Z,18.48
2022-10-15T00:20:03.910Z,18.47
2022-10-15T00:21:06.232Z,18.46
2022-10-15T00:22:07.709Z,18.49
2022-10-15T00:23:09.265Z,18.53
2022-10-15T00:24:10.723Z,18.53
2022-10-15T00:25:12.341Z,18.57
2022-10-15T00:26:14.644Z,18.57
2022-10-15T00:27:16.190Z,18.58
2022-10-15T00:28:17.747Z,18.60
2022-10-15T00:29:19.459Z,18.62
2022-10-15T00:30:21.088Z,18.64
2022-10-15T00:31:24.376Z,18.64
2022-10-15T00:32:26.419Z,18.66
2022-10-15T00:33:27.961Z,18.64
2022-10-15T00:34:29.426Z,18.67
2022-10-15T00:35:30.895Z,18.68
2022-10-15T00:36:33.519Z,18.67
2022-10-15T00:37:35.053Z,18.65
2022-10-15T00:38:36.596Z,18.66
2022-10-15T00:39:38.065Z,18.68
2022-10-15T00:40:41.079Z,18.71
2022-10-15T00:41:43.113Z,18.74
2022-10-15T00:42:44.727Z,18.78
2022-10-15T00:43:52.903Z,18.76
2022-10-15T00:44:56.874Z,18.72
2022-10-15T00:45:58.340Z,18.72
2022-10-15T00:47:19.478Z,18.71
2022-10-15T00:48:28.264Z,18.76
2022-10-15T00:49:35.805Z,18.77
2022-10-15T00:50:37.240Z,18.81
2022-10-15T00:51:40.180Z,18.83
2022-10-15T00:52:44.780Z,18.79
2022-10-15T00:53:46.569Z,18.72
2022-10-15T00:54:48.570Z,18.73
2022-10-15T00:55:51.154Z,18.72
2022-10-15T00:56:52.605Z,18.73
2022-10-15T00:57:54.294Z,18.72
2022-10-15T00:58:55.733Z,18.62
2022-10-15T00:59:57.963Z,18.66
2022-10-15T01:00:59.725Z,18.66
2022-10-15T01:02:01.194Z,18.69
2022-10-15T01:03:02.750Z,18.71
2022-10-15T01:04:04.438Z,18.67
2022-10-15T01:05:06.136Z,18.68
2022-10-15T01:06:07.625Z,18.68
2022-10-15T01:07:09.227Z,18.71
2022-10-15T01:08:13.121Z,18.70
2022-10-15T01:09:14.569Z,18.68
2022-10-15T01:10:16.138Z,18.63
2022-10-15T01:11:32.799Z,18.64
2022-10-15T01:12:43.870Z,18.58
2022-10-15T01:13:48.065Z,18.64
2022-10-15T01:14:52.425Z,18.63
2022-10-15T01:15:55.882Z,18.65
2022-10-15T01:17:03.191Z,18.64
2022-10-15T01:18:04.894Z,18.54
2022-10-15T01:19:08.975Z,18.59
2022-10-15T01:20:30.695Z,18.63
2022-10-15T01:22:00.383Z,18.58
2022-10-15T01:23:04.942Z,18.53
2022-10-15T01:24:15.306Z,18.55
2022-10-15T01:26:42.655Z,18.60
2022-10-15T01:27:46.061Z,18.64
2022-10-15T01:29:14.249Z,18.65
2022-10-15T01:30:18.653Z,18.66
2022-10-15T01:31:20.100Z,18.62
2022-10-15T01:32:28.109Z,18.66
2022-10-15T01:33:35.402Z,18.67
2022-10-15T01:34:43.885Z,18.71
2022-10-15T01:35:49.193Z,18.71
2022-10-15T01:36:52.757Z,18.71
2022-10-15T01:38:05.875Z,18.70
2022-10-15T01:39:19.662Z,18.69
2022-10-15T01:40:23.321Z,18.73
2022-10-15T01:41:32.404Z,18.73
2022-10-15T01:42:35.616Z,18.76
2022-10-15T01:43:44.095Z,18.78
2022-10-15T01:45:11.971Z,18.78
2022-10-15T01:46:51.037Z,18.77
2022-10-15T01:47:56.637Z,18.76
2022-10-15T01:48:58.221Z,18.78
2022-10-15T01:49:59.692Z,18.80
2022-10-15T01:51:02.108Z,18.78
2022-10-15T01:52:06.284Z,18.71
2022-10-15T01:53:07.753Z,18.70
2022-10-15T01:54:10.446Z,18.73
2022-10-15T01:55:12.540Z,18.72
2022-10-15T01:56:15.786Z,18.72
2022-10-15T01:57:17.455Z,18.68
2022-10-15T01:58:19.538Z,18.66
2022-10-15T01:59:25.593Z,18.64
2022-10-15T02:00:28.026Z,18.61
2022-10-15T02:01:29.754Z,18.61
2022-10-15T02:02:31.714Z,18.63
2022-10-15T02:03:42.906Z,18.60
2022-10-15T02:04:44.707Z,18.62
2022-10-15T02:05:51.327Z,18.61
2022-10-15T02:07:13.023Z,18.59
2022-10-15T02:08:18.126Z,18.62
2022-10-15T02:09:38.242Z,18.63
2022-10-15T02:10:50.039Z,18.65
2022-10-15T02:12:01.147Z,18.60
2022-10-15T02:13:21.352Z,18.59
2022-10-15T02:14:27.194Z,18.63
2022-10-15T02:15:39.226Z,18.65
2022-10-15T02:16:42.922Z,18.69
2022-10-15T02:17:44.334Z,18.73
2022-10-15T02:18:48.825Z,18.77
2022-10-15T02:19:50.428Z,18.77
2022-10-15T02:20:56.130Z,18.79
2022-10-15T02:22:17.883Z,18.83
2022-10-15T02:23:21.443Z,18.85
2022-10-15T02:24:24.008Z,18.87
2022-10-15T02:25:25.516Z,18.88
2022-10-15T02:26:27.854Z,18.90
2022-10-15T02:27:29.326Z,18.92
2022-10-15T02:28:30.909Z,18.94
2022-10-15T02:29:33.016Z,18.95
2022-10-15T02:30:34.495Z,18.96
2022-10-15T02:31:37.771Z,18.95
2022-10-15T02:32:41.982Z,18.98
2022-10-15T02:33:43.726Z,18.98
2022-10-15T02:34:48.031Z,18.99
2022-10-15T02:35:49.550Z,18.99
2022-10-15T02:36:51.857Z,19.00
2022-10-15T02:37:53.777Z,19.00
2022-10-15T02:38:55.404Z,19.01
2022-10-15T02:39:57.051Z,19.01
2022-10-15T02:40:58.994Z,19.02
2022-10-15T02:42:00.542Z,19.03
2022-10-15T02:43:03.919Z,19.03
2022-10-15T02:44:05.459Z,19.04
2022-10-15T02:45:07.083Z,19.05
2022-10-15T02:46:09.070Z,19.06
2022-10-15T02:47:11.834Z,19.07
2022-10-15T02:48:14.190Z,19.07
2022-10-15T02:49:15.674Z,19.07
2022-10-15T02:50:17.261Z,19.07
2022-10-15T02:51:19.877Z,19.07
2022-10-15T02:52:21.579Z,19.07
2022-10-15T02:53:23.387Z,19.06
2022-10-15T02:54:24.867Z,19.06
2022-10-15T02:55:26.328Z,19.06
2022-10-15T02:56:27.871Z,19.08
2022-10-15T02:57:29.543Z,19.07
2022-10-15T02:58:32.511Z,19.07
2022-10-15T02:59:34.077Z,19.08
2022-10-15T03:00:35.827Z,19.11
2022-10-15T03:01:37.331Z,19.10
2022-10-15T03:02:40.053Z,19.11
2022-10-15T03:03:41.688Z,19.12
2022-10-15T03:04:43.366Z,19.11
2022-10-15T03:05:45.390Z,19.11
2022-10-15T03:06:47.739Z,19.12
2022-10-15T03:07:49.283Z,19.14
2022-10-15T03:08:50.787Z,19.14
2022-10-15T03:09:52.248Z,19.16
2022-10-15T03:10:53.865Z,19.15
2022-10-15T03:11:55.331Z,19.17
2022-10-15T03:13:01.740Z,19.16
2022-10-15T03:14:03.263Z,19.17
2022-10-15T03:15:07.180Z,19.18
2022-10-15T03:16:10.319Z,19.19
2022-10-15T03:17:13.359Z,19.14
2022-10-15T03:18:15.239Z,19.20
2022-10-15T03:19:17.563Z,19.20
2022-10-15T03:20:20.627Z,19.20
2022-10-15T03:21:22.199Z,19.21
2022-10-15T03:22:24.023Z,19.21
2022-10-15T03:23:27.854Z,19.21
2022-10-15T03:24:39.970Z,19.22
2022-10-15T03:25:41.555Z,19.22
2022-10-15T03:26:47.433Z,19.23
2022-10-15T03:27:48.946Z,19.22
2022-10-15T03:28:58.982Z,19.22
2022-10-15T03:30:08.815Z,19.21
2022-10-15T03:31:10.410Z,19.22
2022-10-15T03:32:11.985Z,19.22
2022-10-15T03:33:13.995Z,19.23
2022-10-15T03:34:15.554Z,19.22
2022-10-15T03:35:17.130Z,19.24
2022-10-15T03:36:18.663Z,19.22
2022-10-15T03:37:20.389Z,19.21
2022-10-15T03:38:22.113Z,19.22
2022-10-15T03:39:25.487Z,19.21
2022-10-15T03:40:30.748Z,19.21
2022-10-15T03:42:57.042Z,19.21
2022-10-15T03:44:02.452Z,19.22
2022-10-15T03:45:05.477Z,19.21
2022-10-15T03:46:07.031Z,19.20
2022-10-15T03:47:12.446Z,19.19
2022-10-15T03:48:20.102Z,19.21
2022-10-15T03:49:21.635Z,19.19
2022-10-15T03:50:23.520Z,19.20
2022-10-15T03:51:26.778Z,19.20
2022-10-15T03:52:36.722Z,19.20
2022-10-15T03:53:38.354Z,19.21
2022-10-15T03:54:40.580Z,19.21
2022-10-15T03:55:42.928Z,19.22
2022-10-15T03:56:44.575Z,19.21
2022-10-15T03:58:01.565Z,19.22
2022-10-15T03:59:02.994Z,19.22
2022-10-15T04:00:05.554Z,19.22
2022-10-15T04:01:14.837Z,19.22
2022-10-15T04:02:16.735Z,19.23
2022-10-15T04:03:18.328Z,19.23
2022-10-15T04:04:19.991Z,19.20
2022-10-15T04:05:21.485Z,19.21
2022-10-15T04:06:28.100Z,19.21
2022-10-15T04:07:29.641Z,19.21
2022-10-15T04:08:31.714Z,19.21
2022-10-15T04:09:33.827Z,19.21
2022-10-15T04:11:01.568Z,19.20
2022-10-15T04:12:03.806Z,19.20
2022-10-15T04:13:05.321Z,19.20
2022-10-15T04:14:08.300Z,19.21
2022-10-15T04:15:10.227Z,19.20
2022-10-15T04:16:18.861Z,19.21
2022-10-15T04:17:20.538Z,19.21
2022-10-15T04:18:22.939Z,19.21
2022-10-15T04:19:28.218Z,19.22
2022-10-15T04:20:37.802Z,19.21
2022-10-15T04:21:48.118Z,19.21
2022-10-15T04:23:02.688Z,19.21
2022-10-15T04:24:04.180Z,19.20
2022-10-15T04:25:14.887Z,19.20
2022-10-15T04:26:17.158Z,19.20
2022-10-15T04:27:18.884Z,19.22
2022-10-15T04:28:20.385Z,19.23
2022-10-15T04:29:21.923Z,19.23
2022-10-15T04:30:24.203Z,19.21
2022-10-15T04:31:31.700Z,19.22
2022-10-15T04:32:33.855Z,19.21
2022-10-15T04:33:35.539Z,19.21
2022-10-15T04:34:37.036Z,19.22
2022-10-15T04:35:38.505Z,19.22
2022-10-15T04:36:45.182Z,19.22
2022-10-15T04:37:49.781Z,19.23
2022-10-15T04:38:52.378Z,19.23
2022-10-15T04:40:26.036Z,19.24
2022-10-15T04:41:27.570Z,19.25
2022-10-15T04:42:34.627Z,19.24
2022-10-15T04:43:36.152Z,19.26
2022-10-15T04:44:41.383Z,19.24
2022-10-15T04:45:42.911Z,19.26
2022-10-15T04:46:44.431Z,19.27
2022-10-15T04:48:15.019Z,19.26
2022-10-15T04:49:16.507Z,19.25
2022-10-15T04:50:18.140Z,19.24
2022-10-15T04:51:37.939Z,19.21
2022-10-15T04:52:47.110Z,19.22
2022-10-15T04:53:48.626Z,19.20
2022-10-15T04:54:50.245Z,19.21
2022-10-15T04:55:53.027Z,19.21
2022-10-15T04:56:55.415Z,19.22
2022-10-15T04:57:57.002Z,19.23
2022-10-15T04:59:06.087Z,19.22
2022-10-15T05:00:11.783Z,19.23
2022-10-15T05:01:16.959Z,19.22
2022-10-15T05:02:33.081Z,19.22
2022-10-15T05:03:49.338Z,19.23
2022-10-15T05:04:50.825Z,19.21
2022-10-15T05:05:52.287Z,19.16
2022-10-15T05:06:53.842Z,19.18
2022-10-15T05:07:55.444Z,19.17
2022-10-15T05:08:56.932Z,19.18
2022-10-15T05:10:05.064Z,19.19
2022-10-15T05:11:07.469Z,19.20
2022-10-15T05:12:09.478Z,19.21
2022-10-15T05:13:10.960Z,19.21
2022-10-15T05:14:13.273Z,19.22
2022-10-15T05:15:14.911Z,19.21
2022-10-15T05:16:20.097Z,19.22
2022-10-15T05:17:21.871Z,19.23
2022-10-15T05:18:23.743Z,19.24
2022-10-15T05:19:27.045Z,19.24
2022-10-15T05:20:28.724Z,19.24
2022-10-15T05:21:31.135Z,19.25
2022-10-15T05:22:35.230Z,19.24
2022-10-15T05:23:37.362Z,19.24
2022-10-15T05:25:08.000Z,19.25
2022-10-15T05:26:12.668Z,19.24
2022-10-15T05:27:14.165Z,19.24
2022-10-15T05:28:16.548Z,19.23
2022-10-15T05:29:18.079Z,19.23
2022-10-15T05:30:19.602Z,19.23
2022-10-15T05:31:27.437Z,19.22
2022-10-15T05:32:37.517Z,19.20
2022-10-15T05:33:39.118Z,19.20
2022-10-15T05:34:40.599Z,19.21
2022-10-15T05:35:47.654Z,19.21
2022-10-15T05:36:49.145Z,19.23
2022-10-15T05:37:50.843Z,19.22
2022-10-15T05:38:53.382Z,19.23
2022-10-15T05:39:54.909Z,19.23
2022-10-15T05:40:56.655Z,19.22
2022-10-15T05:41:59.191Z,19.19
2022-10-15T05:43:11.317Z,19.20
2022-10-15T05:44:12.832Z,19.17
2022-10-15T05:45:14.374Z,19.16
2022-10-15T05:46:16.650Z,19.15
2022-10-15T05:47:18.110Z,19.16
2022-10-15T05:48:20.476Z,19.16
2022-10-15T05:49:22.046Z,19.15
2022-10-15T05:50:33.298Z,19.13
2022-10-15T05:51:37.431Z,19.11
2022-10-15T05:52:44.404Z,19.09
2022-10-15T05:54:15.292Z,19.10
2022-10-15T05:55:16.884Z,19.11
2022-10-15T05:56:18.322Z,19.11
2022-10-15T05:57:19.744Z,19.09
2022-10-15T05:58:21.205Z,19.10
2022-10-15T05:59:22.719Z,19.13
2022-10-15T06:00:24.186Z,19.15
2022-10-15T06:01:27.200Z,19.13
2022-10-15T06:02:29.275Z,19.13
2022-10-15T06:03:31.076Z,19.16
2022-10-15T06:04:35.576Z,19.19
2022-10-15T06:05:37.440Z,19.20
2022-10-15T06:06:38.890Z,19.21
2022-10-15T06:07:40.351Z,19.23
2022-10-15T06:08:41.822Z,19.25
2022-10-15T06:09:43.294Z,19.26
2022-10-15T06:10:44.903Z,19.27
2022-10-15T06:11:47.091Z,19.28
2022-10-15T06:12:52.960Z,19.28
2022-10-15T06:13:54.514Z,19.28
2022-10-15T06:14:55.970Z,19.29
2022-10-15T06:15:57.391Z,19.27
2022-10-15T06:16:59.021Z,19.28
2022-10-15T06:18:00.614Z,19.29
2022-10-15T06:19:02.126Z,19.26
2022-10-15T06:20:03.604Z,19.26
2022-10-15T06:21:05.623Z,19.27
2022-10-15T06:22:07.100Z,19.27
2022-10-15T06:23:08.820Z,19.27
2022-10-15T06:24:10.627Z,19.28
2022-10-15T06:25:12.049Z,19.29
2022-10-15T06:26:13.502Z,19.29
2022-10-15T06:27:16.494Z,19.31
2022-10-15T06:28:18.029Z,19.30
2022-10-15T06:29:19.604Z,19.30
2022-10-15T06:30:21.074Z,19.30
2022-10-15T06:31:22.670Z,19.27
2022-10-15T06:32:24.093Z,19.26
2022-10-15T06:33:25.600Z,19.27
2022-10-15T06:34:27.127Z,19.28
2022-10-15T06:35:33.421Z,19.28
2022-10-15T06:36:34.917Z,19.29
2022-10-15T06:37:36.400Z,19.29
2022-10-15T06:38:39.325Z,19.30
2022-10-15T06:39:41.039Z,19.29
2022-10-15T06:40:42.485Z,19.30
2022-10-15T06:41:44.215Z,19.27
2022-10-15T06:42:45.729Z,19.27
2022-10-15T06:43:50.170Z,19.24
2022-10-15T06:44:51.697Z,19.26
2022-10-15T06:45:53.188Z,19.26
2022-10-15T06:46:54.702Z,19.26
2022-10-15T06:47:56.186Z,19.24
2022-10-15T06:48:57.847Z,19.24
2022-10-15T06:49:59.388Z,19.25
2022-10-15T06:51:00.999Z,19.23
2022-10-15T06:52:03.863Z,19.21
2022-10-15T06:53:05.635Z,19.22
2022-10-15T06:54:07.099Z,19.23
2022-10-15T06:55:08.799Z,19.24
2022-10-15T06:56:10.237Z,19.23
2022-10-15T06:57:12.666Z,19.24
2022-10-15T06:58:14.122Z,19.23
2022-10-15T06:59:15.587Z,19.25
2022-10-15T07:00:17.213Z,19.26
2022-10-15T07:01:18.714Z,19.23
2022-10-15T07:02:20.224Z,19.20
2022-10-15T07:03:22.244Z,19.20
2022-10-15T07:04:24.222Z,19.20
2022-10-15T07:05:25.858Z,19.20
2022-10-15T07:06:27.359Z,19.22
2022-10-15T07:07:28.824Z,19.21
2022-10-15T07:08:30.356Z,19.21
2022-10-15T07:09:31.910Z,19.23
2022-10-15T07:10:33.326Z,19.12
2022-10-15T07:11:34.805Z,19.11
2022-10-15T07:12:36.242Z,19.07
2022-10-15T07:13:37.999Z,19.07
2022-10-15T07:14:42.380Z,19.02
2022-10-15T07:15:46.239Z,19.03
2022-10-15T07:16:48.014Z,19.04
2022-10-15T07:17:49.804Z,19.07
2022-10-15T07:18:51.395Z,19.09
2022-10-15T07:19:52.867Z,19.11
2022-10-15T07:20:54.347Z,19.09
2022-10-15T07:21:55.773Z,19.08
2022-10-15T07:22:58.577Z,19.07
2022-10-15T07:24:04.047Z,19.00
2022-10-15T07:25:06.275Z,19.00
2022-10-15T07:26:07.771Z,19.03
2022-10-15T07:27:18.812Z,19.03
2022-10-15T07:28:21.068Z,19.05
2022-10-15T07:29:22.574Z,19.04
2022-10-15T07:30:27.260Z,19.01
2022-10-15T07:31:28.795Z,19.01
2022-10-15T07:32:30.219Z,19.03
2022-10-15T07:33:33.414Z,19.02
2022-10-15T07:34:34.861Z,18.99
2022-10-15T07:35:37.075Z,18.98
2022-10-15T07:36:39.399Z,18.95
2022-10-15T07:37:41.527Z,18.92
2022-10-15T07:38:43.122Z,18.88
2022-10-15T07:39:44.543Z,18.83
2022-10-15T07:40:46.083Z,18.86
2022-10-15T07:41:47.543Z,18.84
2022-10-15T07:42:52.494Z,18.87
2022-10-15T07:43:54.595Z,18.89
2022-10-15T07:44:56.057Z,18.77
2022-10-15T07:45:57.551Z,18.77
2022-10-15T07:46:58.982Z,18.76
2022-10-15T07:48:00.561Z,18.74
2022-10-15T07:49:02.082Z,18.79
2022-10-15T07:50:03.544Z,18.81
2022-10-15T07:51:05.696Z,18.86
2022-10-15T07:52:08.727Z,18.89
2022-10-15T07:53:10.299Z,18.91
2022-10-15T07:54:11.788Z,18.92
2022-10-15T07:55:13.208Z,18.92
2022-10-15T07:56:14.880Z,18.94
2022-10-15T07:57:16.975Z,18.92
2022-10-15T07:58:18.460Z,18.94
2022-10-15T07:59:19.987Z,18.95
2022-10-15T08:00:21.510Z,18.95
2022-10-15T08:01:22.970Z,18.98
2022-10-15T08:02:24.779Z,19.01
2022-10-15T08:03:26.466Z,19.07
2022-10-15T08:04:28.124Z,19.07
2022-10-15T08:05:29.638Z,19.09
2022-10-15T08:06:31.633Z,19.11
2022-10-15T08:07:33.098Z,19.11
2022-10-15T08:08:36.142Z,19.13
2022-10-15T08:09:37.693Z,19.15
2022-10-15T08:10:39.271Z,19.18
2022-10-15T08:11:40.716Z,19.20
2022-10-15T08:12:44.393Z,19.23
2022-10-15T08:13:47.130Z,19.23
2022-10-15T08:14:48.619Z,19.25
2022-10-15T08:15:56.236Z,19.24
2022-10-15T08:17:01.482Z,19.24
2022-10-15T08:18:03.003Z,19.21
2022-10-15T08:19:04.469Z,19.20
2022-10-15T08:20:06.121Z,19.14
2022-10-15T08:21:07.938Z,19.14
2022-10-15T08:22:09.556Z,19.17
2022-10-15T08:23:14.563Z,19.21
2022-10-15T08:24:15.990Z,19.21
2022-10-15T08:25:17.540Z,19.26
2022-10-15T08:26:19.166Z,19.27
2022-10-15T08:27:20.662Z,19.27
2022-10-15T08:28:22.113Z,19.29
2022-10-15T08:29:23.608Z,19.29
2022-10-15T08:30:25.177Z,19.29
2022-10-15T08:31:26.618Z,19.25
2022-10-15T08:32:28.154Z,19.25
2022-10-15T08:33:29.675Z,19.27
2022-10-15T08:34:31.101Z,19.27
2022-10-15T08:35:36.635Z,19.26
2022-10-15T08:36:38.107Z,19.22
2022-10-15T08:37:39.526Z,19.23
2022-10-15T08:38:41.013Z,19.25
2022-10-15T08:39:42.455Z,19.26
2022-10-15T08:40:48.010Z,19.28
2022-10-15T08:41:56.399Z,19.30
2022-10-15T08:42:57.821Z,19.33
2022-10-15T08:43:59.327Z,19.33
2022-10-15T08:45:01.894Z,19.32
2022-10-15T08:46:04.579Z,19.32
2022-10-15T08:47:07.351Z,19.31
2022-10-15T08:48:12.605Z,19.36
2022-10-15T08:49:21.602Z,19.43
2022-10-15T08:50:41.271Z,19.46
2022-10-15T08:51:45.527Z,19.61
2022-10-15T08:52:47.273Z,19.71
2022-10-15T08:53:50.790Z,19.80
2022-10-15T08:54:52.725Z,19.92
2022-10-15T08:55:55.575Z,19.95
2022-10-15T08:57:04.484Z,20.02
2022-10-15T08:58:21.317Z,20.16
2022-10-15T08:59:25.747Z,20.20
2022-10-15T09:00:47.669Z,20.28
2022-10-15T09:01:54.794Z,20.36
2022-10-15T09:03:01.111Z,20.32
2022-10-15T09:04:02.604Z,20.34
2022-10-15T09:05:22.819Z,20.27
2022-10-15T09:06:25.167Z,20.21
2022-10-15T09:07:31.970Z,20.24
2022-10-15T09:08:48.255Z,20.28
2022-10-15T09:09:58.376Z,20.26
2022-10-15T09:11:00.426Z,20.25
2022-10-15T09:12:01.861Z,20.26
2022-10-15T09:13:33.442Z,20.23
2022-10-15T09:14:35.971Z,20.17
2022-10-15T09:15:43.211Z,20.13
2022-10-15T09:16:45.419Z,20.14
2022-10-15T09:17:47.656Z,20.16
2022-10-15T09:18:52.479Z,20.20
2022-10-15T09:19:54.499Z,20.21
2022-10-15T09:20:56.148Z,20.18
2022-10-15T09:21:57.624Z,20.19
2022-10-15T09:22:59.098Z,20.22
2022-10-15T09:24:03.676Z,20.25
2022-10-15T09:25:10.748Z,20.28
2022-10-15T09:26:12.163Z,20.31
2022-10-15T09:27:19.759Z,20.35
2022-10-15T09:28:21.482Z,20.36
2022-10-15T09:29:23.058Z,20.35
2022-10-15T09:30:45.260Z,20.37
2022-10-15T09:31:49.154Z,20.36
2022-10-15T09:32:54.331Z,20.36
2022-10-15T09:34:19.130Z,20.39
2022-10-15T09:35:22.122Z,20.38
2022-10-15T09:36:30.848Z,20.37
2022-10-15T09:38:05.652Z,20.40
2022-10-15T09:39:17.791Z,20.44
2022-10-15T09:40:37.152Z,20.40
2022-10-15T09:41:41.762Z,20.38
2022-10-15T09:42:43.220Z,20.34
2022-10-15T09:43:49.230Z,20.35
2022-10-15T09:44:50.703Z,20.34
2022-10-15T09:45:52.183Z,20.36
2022-10-15T09:46:54.067Z,20.36
2022-10-15T09:48:00.239Z,20.37
2022-10-15T09:49:03.553Z,20.39
2022-10-15T09:50:05.664Z,20.44
2022-10-15T09:51:08.669Z,20.42
2022-10-15T09:52:21.557Z,20.42
2022-10-15T09:53:32.644Z,20.41
2022-10-15T09:54:40.019Z,20.42
2022-10-15T09:55:41.414Z,20.42
2022-10-15T09:56:43.618Z,20.45
2022-10-15T09:57:46.684Z,20.43
2022-10-15T09:58:57.536Z,20.45
2022-10-15T10:00:02.946Z,20.45
2022-10-15T10:01:17.104Z,20.45
2022-10-15T10:02:19.062Z,20.45
2022-10-15T10:03:22.251Z,20.40
2022-10-15T10:04:24.216Z,20.43
2022-10-15T10:05:29.296Z,20.45
2022-10-15T10:06:30.776Z,20.48
2022-10-15T10:07:36.687Z,20.48
2022-10-15T10:08:39.245Z,20.48
2022-10-15T10:10:06.828Z,20.50
2022-10-15T10:11:09.255Z,20.43
2022-10-15T10:12:17.875Z,20.44
2022-10-15T10:13:23.479Z,20.40
2022-10-15T10:14:32.542Z,20.43
2022-10-15T10:15:34.893Z,20.50
2022-10-15T10:16:36.929Z,20.48
2022-10-15T10:17:40.686Z,20.52
2022-10-15T10:18:50.273Z,20.48
2022-10-15T10:20:14.946Z,20.51
2022-10-15T10:21:28.418Z,20.55
2022-10-15T10:22:29.849Z,20.57
2022-10-15T10:23:34.631Z,20.55
2022-10-15T10:24:36.123Z,20.51
2022-10-15T10:25:42.719Z,20.54
2022-10-15T10:26:44.507Z,20.55
2022-10-15T10:27:46.619Z,20.55
2022-10-15T10:28:57.144Z,20.54
2022-10-15T10:30:06.303Z,20.58
2022-10-15T10:31:07.916Z,20.59
2022-10-15T10:32:10.167Z,20.57
2022-10-15T10:33:12.303Z,20.61
2022-10-15T10:34:14.803Z,20.61
2022-10-15T10:35:23.176Z,20.58
2022-10-15T10:36:25.858Z,20.60
2022-10-15T10:37:27.543Z,20.64
2022-10-15T10:38:29.344Z,20.67
2022-10-15T10:39:31.154Z,20.71
2022-10-15T10:40:34.207Z,20.73
2022-10-15T10:41:52.159Z,20.83
2022-10-15T10:43:10.741Z,20.90
2022-10-15T10:44:18.082Z,20.92
2022-10-15T10:45:21.010Z,20.89
2022-10-15T10:46:23.743Z,20.92
2022-10-15T10:47:26.010Z,20.96
2022-10-15T10:48:38.882Z,20.97
2022-10-15T10:49:41.202Z,21.01
2022-10-15T10:50:45.267Z,21.02
2022-10-15T10:51:49.692Z,21.02
2022-10-15T10:52:51.126Z,21.00
2022-10-15T10:54:01.662Z,21.03
2022-10-15T10:55:07.013Z,20.97
2022-10-15T10:56:08.487Z,20.98
2022-10-15T10:57:10.605Z,21.01
2022-10-15T10:58:17.157Z,20.99
2022-10-15T10:59:19.631Z,21.00
2022-10-15T11:00:44.289Z,21.00
2022-10-15T11:01:45.847Z,21.03
2022-10-15T11:02:49.094Z,21.02
2022-10-15T11:03:51.412Z,21.04
2022-10-15T11:04:53.035Z,21.00
2022-10-15T11:05:56.611Z,20.97
2022-10-15T11:07:01.787Z,20.98
2022-10-15T11:08:03.271Z,20.91
2022-10-15T11:09:07.947Z,20.93
2022-10-15T11:10:18.351Z,20.93
2022-10-15T11:11:38.728Z,20.95
2022-10-15T11:12:58.622Z,20.98
2022-10-15T11:14:03.314Z,21.03
2022-10-15T11:15:23.546Z,21.09
2022-10-15T11:16:29.745Z,21.16
2022-10-15T11:17:37.342Z,21.18
2022-10-15T11:18:53.090Z,21.21
2022-10-15T11:20:12.920Z,21.27
2022-10-15T11:21:35.980Z,21.26
2022-10-15T11:22:41.749Z,21.24
2022-10-15T11:23:46.009Z,21.27
2022-10-15T11:24:48.972Z,21.27
2022-10-15T11:25:54.163Z,21.30
2022-10-15T11:27:10.147Z,21.31
2022-10-15T11:28:18.462Z,21.30
2022-10-15T11:29:20.163Z,21.33
2022-10-15T11:30:47.884Z,21.35
2022-10-15T11:32:02.904Z,21.42
2022-10-15T11:33:19.357Z,21.55
2022-10-15T11:34:26.701Z,21.59
2022-10-15T11:35:52.325Z,21.65
2022-10-15T11:36:54.842Z,21.71
2022-10-15T11:37:56.273Z,21.70
2022-10-15T11:39:16.188Z,21.73
2022-10-15T11:40:36.817Z,21.80
2022-10-15T11:41:41.784Z,21.82
2022-10-15T11:42:56.702Z,21.89
2022-10-15T11:44:01.373Z,21.97
2022-10-15T11:45:19.022Z,21.96
2022-10-15T11:46:42.783Z,21.96
2022-10-15T11:47:47.101Z,21.89
2022-10-15T11:49:17.688Z,21.80
2022-10-15T11:50:37.970Z,21.78
2022-10-15T11:51:50.194Z,21.76
2022-10-15T11:52:54.604Z,21.82
2022-10-15T11:54:05.187Z,21.84
2022-10-15T11:55:09.613Z,21.88
2022-10-15T11:56:12.695Z,21.91
2022-10-15T11:57:15.611Z,21.95
2022-10-15T11:58:20.960Z,21.95
2022-10-15T11:59:41.080Z,21.90
2022-10-15T12:00:44.431Z,21.88
2022-10-15T12:01:50.000Z,21.69
2022-10-15T12:02:51.473Z,21.68
2022-10-15T12:03:54.587Z,21.68
2022-10-15T12:05:00.418Z,21.51
2022-10-15T12:06:05.517Z,21.48
2022-10-15T12:07:07.546Z,21.49
2022-10-15T12:08:09.837Z,21.55
2022-10-15T12:09:13.070Z,21.59
2022-10-15T12:10:32.560Z,21.60
2022-10-15T12:11:59.557Z,21.63
2022-10-15T12:13:11.499Z,21.64
2022-10-15T12:14:19.054Z,21.58
2022-10-15T12:15:23.973Z,21.62
2022-10-15T12:16:27.031Z,21.61
2022-10-15T12:17:28.455Z,21.62
2022-10-15T12:18:38.054Z,21.68
2022-10-15T12:19:47.459Z,21.76
2022-10-15T12:20:48.914Z,21.75
2022-10-15T12:21:56.617Z,21.77
2022-10-15T12:22:59.013Z,21.76
2022-10-15T12:24:00.629Z,21.80
2022-10-15T12:25:02.167Z,21.78
2022-10-15T12:26:25.909Z,21.84
2022-10-15T12:27:29.742Z,21.79
2022-10-15T12:28:31.327Z,21.77
2022-10-15T12:29:32.787Z,21.78
2022-10-15T12:30:37.020Z,21.75
2022-10-15T12:31:51.150Z,21.73
2022-10-15T12:32:53.599Z,21.68
2022-10-15T12:33:55.331Z,21.71
2022-10-15T12:34:57.407Z,21.72
2022-10-15T12:36:02.875Z,21.73
2022-10-15T12:37:09.690Z,21.70
2022-10-15T12:38:12.348Z,21.69
2022-10-15T12:39:33.497Z,21.64
2022-10-15T12:40:35.838Z,21.66
2022-10-15T12:41:38.264Z,21.64
2022-10-15T12:42:39.699Z,21.57
2022-10-15T12:43:41.783Z,21.55
2022-10-15T12:44:43.304Z,21.55
2022-10-15T12:45:52.139Z,21.56
2022-10-15T12:46:53.784Z,21.54
2022-10-15T12:47:55.328Z,21.57
2022-10-15T12:48:58.163Z,21.52
2022-10-15T12:50:01.323Z,21.39
2022-10-15T12:51:21.267Z,21.33
2022-10-15T12:52:41.614Z,21.37
2022-10-15T12:53:43.656Z,21.41
2022-10-15T12:54:45.178Z,21.37
2022-10-15T12:56:11.374Z,21.41
2022-10-15T12:57:30.764Z,21.39
2022-10-15T12:58:33.277Z,21.34
2022-10-15T12:59:43.643Z,21.21
2022-10-15T13:00:45.382Z,21.16
2022-10-15T13:01:46.859Z,21.08
2022-10-15T13:02:48.311Z,21.10
2022-10-15T13:03:50.972Z,21.03
2022-10-15T13:04:52.409Z,20.99
2022-10-15T13:05:55.320Z,21.02
2022-10-15T13:07:11.357Z,21.07
2022-10-15T13:08:13.888Z,21.07
2022-10-15T13:09:20.496Z,21.11
2022-10-15T13:10:29.167Z,21.13
2022-10-15T13:11:31.320Z,21.15
2022-10-15T13:12:36.119Z,21.21
2022-10-15T13:13:37.590Z,21.20
2022-10-15T13:14:42.810Z,21.25
2022-10-15T13:15:52.053Z,21.24
2022-10-15T13:16:56.111Z,21.26
2022-10-15T13:18:04.898Z,21.19
2022-10-15T13:19:06.379Z,21.16
2022-10-15T13:20:09.678Z,21.18
2022-10-15T13:21:13.772Z,21.12
2022-10-15T13:22:22.892Z,20.99
2022-10-15T13:23:30.717Z,20.95
2022-10-15T13:24:40.035Z,20.94
2022-10-15T13:25:41.493Z,20.94
2022-10-15T13:26:42.910Z,20.97
2022-10-15T13:27:44.356Z,21.01
2022-10-15T13:28:46.249Z,21.03
2022-10-15T13:29:55.106Z,21.07
2022-10-15T13:30:56.784Z,21.16
2022-10-15T13:31:58.224Z,21.13
2022-10-15T13:32:59.674Z,21.11
2022-10-15T13:34:03.165Z,21.15
2022-10-15T13:35:10.373Z,21.19
2022-10-15T13:36:24.969Z,21.24
2022-10-15T13:37:29.487Z,21.31
2022-10-15T13:38:31.106Z,21.36
2022-10-15T13:40:35.860Z,21.31
2022-10-15T13:41:37.966Z,21.25
2022-10-15T13:42:39.399Z,21.24
2022-10-15T13:43:50.203Z,21.25
2022-10-15T13:45:01.288Z,21.27
2022-10-15T13:46:03.092Z,21.29
2022-10-15T13:47:17.347Z,21.33
2022-10-15T13:48:22.990Z,21.30
2022-10-15T13:49:26.600Z,21.31
2022-10-15T13:50:31.432Z,21.24
2022-10-15T13:51:34.337Z,21.26
2022-10-15T13:52:38.300Z,21.28
2022-10-15T13:53:40.346Z,21.29
2022-10-15T13:54:42.766Z,21.29
2022-10-15T13:55:44.858Z,21.27
2022-10-15T13:56:50.242Z,21.33
2022-10-15T13:57:56.778Z,21.33
2022-10-15T13:58:59.550Z,21.31
2022-10-15T14:00:01.127Z,21.31